APL Coral — WDF6832 — position and weather

sailwx.info

Track history (hours):
 
Tides and Currents Weather Stations Pressure Air Temp Water Temp Dewpoint Dewpoint Depression Visibility Wind Speed Wind Dir Waves Ship Positions

APL Coral

Owner: APL Maritime Ltd., Bethesda, MD. More information available from US FCC via Universal Licensing System and Coast Guard Vessel Documentation Center.

Last reported at 2016-Sep-10 12:06 UTC. Time now 2016-Sep-25 15:38 UTC.
Position N 01°55' E 102°19'.
Warning: this ship's position is 15 days out of date.

Length 275 m; draft 12.8 m.

Type: Cargo ship. MMSI: 367478280.

Date/timePositionNaut miles runAvg speedWind from/ knotsBaromVisibWave heightAir tempDewpointWater temp
2016-Sep-10 12:06N 01°55' E 102°19'1018.4
2016-Sep-10 11:33N 01°51' E 102°28'1818.3
2016-Sep-10 10:33N 01°44' E 102°45'6215.2
2016-Sep-10 06:29N 01°12' E 103°38'1010.4
2016-Sep-10 05:33N 01°16' E 103°47'0 0.1
2016-Sep-10 04:30N 01°16' E 103°47'0 0.0
2016-Sep-10 03:33N 01°16' E 103°47'0 0.0
2016-Sep-10 02:27N 01°16' E 103°47'0 0.0
2016-Sep-10 01:33N 01°16' E 103°47'0 0.0
2016-Sep-10 00:27N 01°16' E 103°47'0 0.0
2016-Sep-09 23:33N 01°16' E 103°47'0 0.0
2016-Sep-09 22:33N 01°16' E 103°47'0 0.0
2016-Sep-09 21:27N 01°16' E 103°47'0 0.0
2016-Sep-09 20:33N 01°16' E 103°47'0 0.0
2016-Sep-09 19:33N 01°16' E 103°47'0 0.0
2016-Sep-09 18:33N 01°16' E 103°47'0 0.0
2016-Sep-09 17:33N 01°16' E 103°47'0 0.0
2016-Sep-09 16:33N 01°16' E 103°47'0 0.0
2016-Sep-09 15:33N 01°16' E 103°47'0 0.0
2016-Sep-09 14:33N 01°16' E 103°47'0 0.0
2016-Sep-09 13:33N 01°16' E 103°47'0 0.0
2016-Sep-09 12:33N 01°16' E 103°47'0 0.1
2016-Sep-09 11:33N 01°16' E 103°47'4 3.7
2016-Sep-09 10:33N 01°13' E 103°48'5 5.1
2016-Sep-09 09:32N 01°14' E 103°53'0 0.0
2016-Sep-09 08:14N 01°14' E 103°53'0 0.2
2016-Sep-09 07:32N 01°14' E 103°53'0 0.2
2016-Sep-09 06:26N 01°14' E 103°53'0 0.0
2016-Sep-09 05:32N 01°14' E 103°53'2 1.9
2016-Sep-09 04:33N 01°14' E 103°55'  
2016-Sep-05 18:26N 22°01' E 114°27'2512.0
2016-Sep-05 16:19N 22°17' E 114°06'1110.1
2016-Sep-05 15:15N 22°22' E 113°55'4 5.8
2016-Sep-05 14:32N 22°25' E 113°53'3 0.3
2016-Sep-05 04:33N 22°28' E 113°53'0 0.0
2016-Sep-05 03:34N 22°28' E 113°53'0 0.1
2016-Sep-05 02:33N 22°28' E 113°53'2 2.4
2016-Sep-05 01:33N 22°26' E 113°53'29 8.9
2016-Sep-04 22:20N 22°08' E 114°18'7 9.1
2016-Sep-04 21:33N 22°07' E 114°25'24217.1
2016-Sep-04 07:23N 23°43' E 118°26'5618.3
2016-Sep-04 04:21N 24°18' E 119°13'34916.5
2016-Sep-03 07:13N 29°19' E 122°30'1818.1
2016-Sep-03 06:14N 29°37' E 122°30'1217.3
2016-Sep-03 05:33N 29°44' E 122°19'1111.1
2016-Sep-03 04:33N 29°53' E 122°11'1312.8
2016-Sep-03 03:33N 29°58' E 121°57'6 5.0
2016-Sep-03 02:21N 29°57' E 121°50'0 0.0
2016-Sep-03 01:30N 29°57' E 121°50'0 0.0
2016-Sep-03 00:33N 29°57' E 121°50'0 0.0
2016-Sep-02 23:21N 29°57' E 121°50'0 0.0
2016-Sep-02 18:21N 29°57' E 121°50'2 3.0
2016-Sep-02 17:34N 29°58' E 121°53'1111.4
2016-Sep-02 16:33N 29°56' E 122°06'1212.3
2016-Sep-02 15:33N 29°47' E 122°16'1010.3
2016-Sep-02 14:33N 29°44' E 122°27'5 0.4
2016-Sep-02 01:33N 29°45' E 122°33'0 0.0
2016-Sep-02 00:17N 29°45' E 122°33'0 0.1
2016-Sep-01 23:34N 29°45' E 122°33'0 0.1
2016-Sep-01 22:33N 29°45' E 122°33'0 0.1
2016-Sep-01 21:33N 29°45' E 122°33'0 0.1
2016-Sep-01 20:27N 29°45' E 122°33'0 0.0
2016-Sep-01 19:20N 29°45' E 122°33'0 0.2
2016-Sep-01 18:31N 29°45' E 122°33'0 0.1
2016-Sep-01 17:33N 29°45' E 122°33'0 0.1
2016-Sep-01 16:33N 29°45' E 122°33'0 0.1
2016-Sep-01 15:33N 29°45' E 122°33'0 0.0
2016-Sep-01 14:33N 29°45' E 122°33'6 5.8
2016-Sep-01 13:33N 29°49' E 122°38'1917.0
2016-Sep-01 12:27N 30°01' E 122°55'1815.7
2016-Sep-01 11:17N 30°19' E 122°60'1317.9
2016-Sep-01 10:33N 30°32' E 122°58'6913.8
2016-Sep-01 05:33N 31°16' E 121°55'1212.2
2016-Sep-01 04:33N 31°20' E 121°42'7 6.6
2016-Sep-01 03:33N 31°22' E 121°35'0 0.0
2016-Sep-01 02:33N 31°22' E 121°35'0 0.0
2016-Sep-01 01:33N 31°22' E 121°35'0 0.0
2016-Sep-01 00:30N 31°22' E 121°35'0 0.0
2016-Aug-31 23:30N 31°22' E 121°35'0 0.0
2016-Aug-31 22:33N 31°22' E 121°35'0 0.0
2016-Aug-31 21:33N 31°22' E 121°35'0 0.0
2016-Aug-31 20:33N 31°22' E 121°35'0 0.0
2016-Aug-31 19:33N 31°22' E 121°35'0 0.0
2016-Aug-31 18:33N 31°22' E 121°35'0 0.0
2016-Aug-31 17:33N 31°22' E 121°35'0 0.0
2016-Aug-31 16:33N 31°22' E 121°35'4 3.7
2016-Aug-31 15:33N 31°21' E 121°39'9 9.4
2016-Aug-31 14:33N 31°17' E 121°49'1111.0
2016-Aug-31 13:33N 31°15' E 122°01'  
Track history (hours):
 
Tides and Currents Weather Stations Pressure Air Temp Water Temp Dewpoint Dewpoint Depression Visibility Wind Speed Wind Dir Waves Ship Positions

APL Coral

Owner: APL Maritime Ltd., Bethesda, MD. More information available from US FCC via Universal Licensing System and Coast Guard Vessel Documentation Center.

Last reported at 2016-Sep-10 12:06 UTC. Time now 2016-Sep-25 15:38 UTC.
Position N 01°55' E 102°19'.
Warning: this ship's position is 15 days out of date.

Length 275 m; draft 12.8 m.

Type: Cargo ship. MMSI: 367478280.

Date/timePositionNaut miles runAvg speedWind from/ knotsBaromVisibWave heightAir tempDewpointWater temp
2016-Sep-10 12:06N 01°55' E 102°19'1018.4
2016-Sep-10 11:33N 01°51' E 102°28'1818.3
2016-Sep-10 10:33N 01°44' E 102°45'6215.2
2016-Sep-10 06:29N 01°12' E 103°38'1010.4
2016-Sep-10 05:33N 01°16' E 103°47'0 0.1
2016-Sep-10 04:30N 01°16' E 103°47'0 0.0
2016-Sep-10 03:33N 01°16' E 103°47'0 0.0
2016-Sep-10 02:27N 01°16' E 103°47'0 0.0
2016-Sep-10 01:33N 01°16' E 103°47'0 0.0
2016-Sep-10 00:27N 01°16' E 103°47'0 0.0
2016-Sep-09 23:33N 01°16' E 103°47'0 0.0
2016-Sep-09 22:33N 01°16' E 103°47'0 0.0
2016-Sep-09 21:27N 01°16' E 103°47'0 0.0
2016-Sep-09 20:33N 01°16' E 103°47'0 0.0
2016-Sep-09 19:33N 01°16' E 103°47'0 0.0
2016-Sep-09 18:33N 01°16' E 103°47'0 0.0
2016-Sep-09 17:33N 01°16' E 103°47'0 0.0
2016-Sep-09 16:33N 01°16' E 103°47'0 0.0
2016-Sep-09 15:33N 01°16' E 103°47'0 0.0
2016-Sep-09 14:33N 01°16' E 103°47'0 0.0
2016-Sep-09 13:33N 01°16' E 103°47'0 0.0
2016-Sep-09 12:33N 01°16' E 103°47'0 0.1
2016-Sep-09 11:33N 01°16' E 103°47'4 3.7
2016-Sep-09 10:33N 01°13' E 103°48'5 5.1
2016-Sep-09 09:32N 01°14' E 103°53'0 0.0
2016-Sep-09 08:14N 01°14' E 103°53'0 0.2
2016-Sep-09 07:32N 01°14' E 103°53'0 0.2
2016-Sep-09 06:26N 01°14' E 103°53'0 0.0
2016-Sep-09 05:32N 01°14' E 103°53'2 1.9
2016-Sep-09 04:33N 01°14' E 103°55'  
2016-Sep-05 18:26N 22°01' E 114°27'2512.0
2016-Sep-05 16:19N 22°17' E 114°06'1110.1
2016-Sep-05 15:15N 22°22' E 113°55'4 5.8
2016-Sep-05 14:32N 22°25' E 113°53'3 0.3
2016-Sep-05 04:33N 22°28' E 113°53'0 0.0
2016-Sep-05 03:34N 22°28' E 113°53'0 0.1
2016-Sep-05 02:33N 22°28' E 113°53'2 2.4
2016-Sep-05 01:33N 22°26' E 113°53'29 8.9
2016-Sep-04 22:20N 22°08' E 114°18'7 9.1
2016-Sep-04 21:33N 22°07' E 114°25'24217.1
2016-Sep-04 07:23N 23°43' E 118°26'5618.3
2016-Sep-04 04:21N 24°18' E 119°13'34916.5
2016-Sep-03 07:13N 29°19' E 122°30'1818.1
2016-Sep-03 06:14N 29°37' E 122°30'1217.3
2016-Sep-03 05:33N 29°44' E 122°19'1111.1
2016-Sep-03 04:33N 29°53' E 122°11'1312.8
2016-Sep-03 03:33N 29°58' E 121°57'6 5.0
2016-Sep-03 02:21N 29°57' E 121°50'0 0.0
2016-Sep-03 01:30N 29°57' E 121°50'0 0.0
2016-Sep-03 00:33N 29°57' E 121°50'0 0.0
2016-Sep-02 23:21N 29°57' E 121°50'0 0.0
2016-Sep-02 18:21N 29°57' E 121°50'2 3.0
2016-Sep-02 17:34N 29°58' E 121°53'1111.4
2016-Sep-02 16:33N 29°56' E 122°06'1212.3
2016-Sep-02 15:33N 29°47' E 122°16'1010.3
2016-Sep-02 14:33N 29°44' E 122°27'5 0.4
2016-Sep-02 01:33N 29°45' E 122°33'0 0.0
2016-Sep-02 00:17N 29°45' E 122°33'0 0.1
2016-Sep-01 23:34N 29°45' E 122°33'0 0.1
2016-Sep-01 22:33N 29°45' E 122°33'0 0.1
2016-Sep-01 21:33N 29°45' E 122°33'0 0.1
2016-Sep-01 20:27N 29°45' E 122°33'0 0.0
2016-Sep-01 19:20N 29°45' E 122°33'0 0.2
2016-Sep-01 18:31N 29°45' E 122°33'0 0.1
2016-Sep-01 17:33N 29°45' E 122°33'0 0.1
2016-Sep-01 16:33N 29°45' E 122°33'0 0.1
2016-Sep-01 15:33N 29°45' E 122°33'0 0.0
2016-Sep-01 14:33N 29°45' E 122°33'6 5.8
2016-Sep-01 13:33N 29°49' E 122°38'1917.0
2016-Sep-01 12:27N 30°01' E 122°55'1815.7
2016-Sep-01 11:17N 30°19' E 122°60'1317.9
2016-Sep-01 10:33N 30°32' E 122°58'6913.8
2016-Sep-01 05:33N 31°16' E 121°55'1212.2
2016-Sep-01 04:33N 31°20' E 121°42'7 6.6
2016-Sep-01 03:33N 31°22' E 121°35'0 0.0
2016-Sep-01 02:33N 31°22' E 121°35'0 0.0
2016-Sep-01 01:33N 31°22' E 121°35'0 0.0
2016-Sep-01 00:30N 31°22' E 121°35'0 0.0
2016-Aug-31 23:30N 31°22' E 121°35'0 0.0
2016-Aug-31 22:33N 31°22' E 121°35'0 0.0
2016-Aug-31 21:33N 31°22' E 121°35'0 0.0
2016-Aug-31 20:33N 31°22' E 121°35'0 0.0
2016-Aug-31 19:33N 31°22' E 121°35'0 0.0
2016-Aug-31 18:33N 31°22' E 121°35'0 0.0
2016-Aug-31 17:33N 31°22' E 121°35'0 0.0
2016-Aug-31 16:33N 31°22' E 121°35'4 3.7
2016-Aug-31 15:33N 31°21' E 121°39'9 9.4
2016-Aug-31 14:33N 31°17' E 121°49'1111.0
2016-Aug-31 13:33N 31°15' E 122°01'  

Dump ship's entire track history